createdAt,value
2018-07-08T00:00:40.288Z,20.40
2018-07-08T00:05:37.720Z,20.30
2018-07-08T00:08:06.572Z,20.20
2018-07-08T00:10:38.301Z,20.10
2018-07-08T00:15:36.708Z,20.10
2018-07-08T00:18:05.470Z,20.00
2018-07-08T00:20:34.387Z,20.10
2018-07-08T00:25:31.699Z,19.90
2018-07-08T00:28:00.515Z,20.00
2018-07-08T00:30:29.300Z,20.00
2018-07-08T00:32:58.134Z,20.10
2018-07-08T00:35:26.849Z,19.90
2018-07-08T00:37:55.619Z,19.90
2018-07-08T00:40:24.365Z,19.80
2018-07-08T00:42:53.552Z,19.70
2018-07-08T00:45:22.268Z,19.70
2018-07-08T00:50:19.573Z,19.80
2018-07-08T00:52:48.394Z,19.80
2018-07-08T00:55:17.186Z,19.70
2018-07-08T00:57:45.980Z,19.70
2018-07-08T01:00:29.692Z,19.70
2018-07-08T01:02:59.641Z,19.70
2018-07-08T01:05:28.877Z,19.60
2018-07-08T01:07:57.661Z,19.60
2018-07-08T01:10:26.974Z,19.60
2018-07-08T01:12:56.338Z,19.60
2018-07-08T01:15:25.414Z,19.70
2018-07-08T01:17:54.250Z,19.60
2018-07-08T01:20:23.513Z,19.70
2018-07-08T01:22:53.327Z,19.70
2018-07-08T01:25:33.825Z,19.60
2018-07-08T01:28:02.831Z,19.50
2018-07-08T01:30:31.634Z,19.40
2018-07-08T01:33:00.395Z,19.40
2018-07-08T01:35:29.248Z,19.50
2018-07-08T01:37:58.045Z,19.30
2018-07-08T01:40:26.971Z,19.30
2018-07-08T01:42:55.790Z,19.20
2018-07-08T01:45:24.755Z,19.20
2018-07-08T01:47:53.748Z,19.20
2018-07-08T01:50:22.523Z,19.20
2018-07-08T01:55:19.904Z,19.10
2018-07-08T01:57:48.795Z,19.10
2018-07-08T02:05:14.801Z,19.10
2018-07-08T02:07:43.757Z,19.00
2018-07-08T02:10:12.549Z,19.00
2018-07-08T02:12:41.303Z,19.00
2018-07-08T02:15:10.178Z,18.90
2018-07-08T02:17:39.017Z,18.90
2018-07-08T02:20:08.240Z,18.90
2018-07-08T02:22:37.286Z,18.90
2018-07-08T02:27:34.705Z,19.00
2018-07-08T02:30:03.564Z,19.00
2018-07-08T02:32:32.671Z,19.00
2018-07-08T02:35:01.490Z,18.90
2018-07-08T02:37:30.451Z,18.90
2018-07-08T02:39:59.228Z,18.90
2018-07-08T02:42:28.036Z,18.90
2018-07-08T02:44:56.779Z,18.90
2018-07-08T02:47:25.647Z,18.80
2018-07-08T02:49:54.517Z,18.80
2018-07-08T02:52:23.608Z,18.80
2018-07-08T02:54:52.387Z,18.80
2018-07-08T02:57:21.275Z,18.70
2018-07-08T02:59:49.975Z,18.70
2018-07-08T03:02:18.774Z,18.80
2018-07-08T03:04:47.747Z,18.80
2018-07-08T03:07:16.556Z,18.80
2018-07-08T03:09:45.407Z,18.80
2018-07-08T03:12:14.271Z,18.70
2018-07-08T03:14:43.125Z,18.60
2018-07-08T03:17:11.988Z,18.70
2018-07-08T03:22:09.308Z,18.60
2018-07-08T03:24:38.106Z,18.50
2018-07-08T03:27:07.249Z,18.50
2018-07-08T03:29:36.009Z,18.50
2018-07-08T03:32:04.877Z,18.60
2018-07-08T03:34:33.725Z,18.80
2018-07-08T03:41:59.928Z,18.80
2018-07-08T03:44:28.730Z,18.70
2018-07-08T03:46:57.514Z,18.50
2018-07-08T03:54:28.703Z,18.70
2018-07-08T03:56:57.622Z,18.60
2018-07-08T04:01:55.043Z,18.60
2018-07-08T04:04:23.844Z,18.60
2018-07-08T04:06:52.584Z,18.60
2018-07-08T04:09:21.799Z,18.70
2018-07-08T04:11:50.528Z,18.50
2018-07-08T04:14:19.351Z,18.40
2018-07-08T04:16:48.199Z,18.40
2018-07-08T04:19:16.977Z,18.50
2018-07-08T04:21:45.801Z,18.50
2018-07-08T04:24:14.646Z,18.50
2018-07-08T04:26:43.508Z,18.50
2018-07-08T04:29:12.324Z,18.50
2018-07-08T04:31:41.086Z,18.50
2018-07-08T04:34:10.432Z,18.50
2018-07-08T04:36:39.233Z,18.50
2018-07-08T04:39:08.905Z,18.50
2018-07-08T04:41:37.800Z,18.60
2018-07-08T04:44:06.592Z,18.60
2018-07-08T04:46:35.473Z,18.60
2018-07-08T04:49:04.292Z,18.50
2018-07-08T04:51:33.085Z,18.50
2018-07-08T04:54:01.882Z,18.50
2018-07-08T04:56:30.683Z,18.50
2018-07-08T04:58:59.428Z,18.40
2018-07-08T05:01:28.242Z,18.50
2018-07-08T05:03:57.018Z,18.50
2018-07-08T05:06:25.784Z,18.40
2018-07-08T05:08:54.634Z,18.50
2018-07-08T05:11:23.431Z,18.60
2018-07-08T05:13:52.813Z,18.60
2018-07-08T05:16:21.555Z,18.60
2018-07-08T05:18:51.305Z,18.60
2018-07-08T05:21:20.089Z,18.60
2018-07-08T05:23:48.848Z,18.50
2018-07-08T05:26:17.603Z,18.50
2018-07-08T05:28:46.374Z,18.60
2018-07-08T05:31:15.117Z,18.60
2018-07-08T05:33:43.928Z,18.50
2018-07-08T05:36:13.000Z,18.60
2018-07-08T05:41:10.364Z,18.70
2018-07-08T05:43:39.250Z,18.70
2018-07-08T05:46:08.315Z,18.70
2018-07-08T05:48:37.091Z,18.80
2018-07-08T05:51:05.896Z,18.70
2018-07-08T05:58:31.772Z,18.70
2018-07-08T06:01:00.561Z,18.70
2018-07-08T06:03:29.500Z,18.80
2018-07-08T06:05:58.336Z,18.90
2018-07-08T06:08:27.112Z,18.90
2018-07-08T06:13:24.591Z,18.90
2018-07-08T06:18:21.843Z,18.90
2018-07-08T06:20:50.725Z,19.00
2018-07-08T06:23:19.613Z,19.00
2018-07-08T06:25:48.707Z,19.00
2018-07-08T06:28:17.595Z,19.00
2018-07-08T06:30:46.907Z,18.90
2018-07-08T06:33:15.831Z,18.90
2018-07-08T06:35:44.685Z,18.80
2018-07-08T06:38:14.176Z,18.80
2018-07-08T06:40:42.970Z,18.80
2018-07-08T06:43:11.935Z,18.90
2018-07-08T06:45:41.493Z,18.90
2018-07-08T06:48:10.516Z,19.00
2018-07-08T06:50:39.289Z,19.00
2018-07-08T06:55:36.670Z,18.90
2018-07-08T06:58:05.454Z,18.90
2018-07-08T07:03:02.665Z,19.10
2018-07-08T07:05:31.693Z,19.00
2018-07-08T07:08:00.442Z,19.10
2018-07-08T07:10:30.153Z,19.20
2018-07-08T07:12:59.226Z,19.30
2018-07-08T07:15:28.086Z,19.30
2018-07-08T07:17:56.821Z,19.30
2018-07-08T07:23:00.878Z,19.30
2018-07-08T07:25:29.664Z,19.30
2018-07-08T07:27:58.496Z,19.40
2018-07-08T07:32:55.886Z,19.40
2018-07-08T07:35:24.662Z,19.50
2018-07-08T07:40:22.011Z,19.50
2018-07-08T07:42:50.981Z,19.50
2018-07-08T07:45:19.807Z,19.50
2018-07-08T07:47:48.741Z,19.60
2018-07-08T07:50:17.682Z,19.60
2018-07-08T07:52:46.501Z,19.60
2018-07-08T07:55:15.289Z,19.70
2018-07-08T07:57:44.147Z,19.90
2018-07-08T08:00:13.344Z,20.00
2018-07-08T08:02:42.276Z,19.90
2018-07-08T08:05:11.302Z,19.90
2018-07-08T08:07:40.221Z,20.00
2018-07-08T08:10:09.226Z,20.10
2018-07-08T08:12:38.679Z,20.00
2018-07-08T08:15:07.712Z,19.90
2018-07-08T08:17:36.472Z,20.00
2018-07-08T08:20:05.428Z,20.00
2018-07-08T08:22:34.224Z,20.00
2018-07-08T08:25:03.336Z,20.10
2018-07-08T08:27:32.256Z,20.10
2018-07-08T08:30:01.799Z,20.20
2018-07-08T08:37:32.611Z,20.20
2018-07-08T08:40:01.595Z,20.20
2018-07-08T08:42:30.552Z,20.20
2018-07-08T08:44:59.779Z,20.20
2018-07-08T08:47:29.319Z,20.30
2018-07-08T08:49:58.261Z,20.30
2018-07-08T09:02:22.405Z,20.40
2018-07-08T09:07:20.847Z,20.60
2018-07-08T09:09:49.715Z,20.60
2018-07-08T09:12:18.540Z,20.70
2018-07-08T09:14:47.334Z,20.80
2018-07-08T09:17:16.108Z,20.80
2018-07-08T09:19:44.908Z,20.70
2018-07-08T09:22:13.628Z,20.60
2018-07-08T09:24:42.367Z,20.70
2018-07-08T09:27:11.136Z,20.70
2018-07-08T09:29:39.876Z,20.60
2018-07-08T09:32:08.676Z,20.60
2018-07-08T09:34:37.399Z,20.70
2018-07-08T09:39:41.347Z,20.70
2018-07-08T09:42:10.355Z,20.70
2018-07-08T09:44:39.147Z,20.70
2018-07-08T09:47:07.981Z,20.70
2018-07-08T09:54:33.896Z,20.70
2018-07-08T09:57:02.680Z,20.80
2018-07-08T09:59:31.523Z,20.90
2018-07-08T10:02:00.293Z,21.10
2018-07-08T10:04:29.157Z,21.10
2018-07-08T10:06:57.959Z,21.10
2018-07-08T10:09:26.672Z,21.30
2018-07-08T10:14:24.790Z,21.50
2018-07-08T10:16:53.533Z,21.60
2018-07-08T10:19:22.365Z,21.70
2018-07-08T10:21:51.103Z,21.80
2018-07-08T10:24:19.999Z,21.90
2018-07-08T10:26:59.558Z,21.90
2018-07-08T10:31:56.817Z,21.70
2018-07-08T10:34:25.667Z,21.70
2018-07-08T10:36:54.666Z,21.70
2018-07-08T10:39:23.445Z,21.70
2018-07-08T10:41:52.236Z,21.80
2018-07-08T10:44:21.095Z,21.90
2018-07-08T10:46:49.879Z,22.00
2018-07-08T10:49:18.752Z,22.20
2018-07-08T10:54:16.163Z,22.20
2018-07-08T10:56:44.966Z,22.10
2018-07-08T10:59:13.836Z,22.10
2018-07-08T11:01:42.655Z,22.10
2018-07-08T11:06:40.020Z,22.00
2018-07-08T11:09:08.852Z,22.10
2018-07-08T11:11:37.650Z,22.10
2018-07-08T11:14:06.456Z,22.10
2018-07-08T11:16:35.431Z,22.20
2018-07-08T11:21:32.869Z,22.20
2018-07-08T11:24:01.714Z,22.20
2018-07-08T11:26:30.713Z,22.20
2018-07-08T11:28:59.506Z,22.20
2018-07-08T11:31:28.309Z,22.20
2018-07-08T11:33:57.148Z,22.20
2018-07-08T11:36:26.048Z,22.30
2018-07-08T11:41:23.582Z,22.20
2018-07-08T11:43:52.308Z,22.30
2018-07-08T11:48:49.674Z,22.40
2018-07-08T11:51:18.508Z,22.50
2018-07-08T11:53:47.293Z,22.60
2018-07-08T11:56:16.048Z,22.70
2018-07-08T11:58:44.903Z,22.60
2018-07-08T12:01:13.909Z,22.60
2018-07-08T12:03:42.790Z,22.60
2018-07-08T12:06:11.761Z,22.50
2018-07-08T12:08:40.518Z,22.50
2018-07-08T12:11:09.272Z,22.50
2018-07-08T12:13:38.064Z,22.60
2018-07-08T12:16:06.846Z,22.60
2018-07-08T12:18:35.747Z,22.60
2018-07-08T12:21:04.692Z,22.60
2018-07-08T12:23:33.824Z,22.60
2018-07-08T12:26:02.631Z,22.60
2018-07-08T12:28:31.593Z,22.70
2018-07-08T12:31:00.456Z,22.70
2018-07-08T12:33:29.307Z,22.70
2018-07-08T12:35:58.147Z,22.70
2018-07-08T12:38:26.912Z,22.80
2018-07-08T12:43:24.195Z,22.70
2018-07-08T12:45:53.102Z,22.70
2018-07-08T12:48:21.863Z,22.80
2018-07-08T12:50:50.978Z,22.80
2018-07-08T12:53:19.859Z,22.80
2018-07-08T12:55:48.647Z,22.90
2018-07-08T12:58:17.437Z,23.00
2018-07-08T13:00:46.401Z,23.10
2018-07-08T13:03:15.237Z,23.20
2018-07-08T13:05:43.992Z,23.20
2018-07-08T13:08:12.809Z,23.30
2018-07-08T13:10:41.609Z,23.40
2018-07-08T13:13:10.468Z,23.40
2018-07-08T13:15:39.215Z,23.40
2018-07-08T13:18:08.134Z,23.40
2018-07-08T13:20:36.991Z,23.50
2018-07-08T13:23:05.750Z,23.50
2018-07-08T13:25:34.667Z,23.60
2018-07-08T13:28:03.465Z,23.60
2018-07-08T13:30:32.268Z,23.60
2018-07-08T13:33:01.098Z,23.70
2018-07-08T13:35:29.884Z,23.80
2018-07-08T13:37:58.899Z,23.70
2018-07-08T13:40:27.756Z,23.80
2018-07-08T13:42:56.621Z,23.90
2018-07-08T13:45:25.371Z,24.00
2018-07-08T13:47:54.175Z,24.10
2018-07-08T13:50:23.013Z,24.00
2018-07-08T13:55:20.292Z,24.00
2018-07-08T13:57:49.111Z,24.00
2018-07-08T14:00:17.911Z,24.00
2018-07-08T14:02:46.713Z,24.00
2018-07-08T14:05:15.545Z,24.00
2018-07-08T14:12:41.326Z,24.20
2018-07-08T14:15:10.115Z,24.40
2018-07-08T14:17:38.988Z,24.40
2018-07-08T14:20:07.836Z,24.40
2018-07-08T14:22:36.501Z,24.40
2018-07-08T14:25:05.363Z,24.40
2018-07-08T14:27:34.121Z,24.40
2018-07-08T14:32:31.452Z,24.30
2018-07-08T14:35:00.330Z,24.40
2018-07-08T14:37:29.181Z,24.40
2018-07-08T14:42:26.369Z,24.50
2018-07-08T14:44:55.323Z,24.60
2018-07-08T14:47:24.109Z,24.70
2018-07-08T14:49:52.899Z,24.70
2018-07-08T14:52:21.768Z,24.70
2018-07-08T14:54:50.511Z,24.80
2018-07-08T14:57:19.286Z,24.80
2018-07-08T14:59:48.110Z,24.90
2018-07-08T15:02:17.055Z,24.90
2018-07-08T15:04:46.140Z,25.00
2018-07-08T15:09:43.347Z,25.00
2018-07-08T15:12:12.148Z,25.10
2018-07-08T15:14:40.906Z,25.20
2018-07-08T15:17:09.750Z,25.20
2018-07-08T15:19:38.512Z,25.20
2018-07-08T15:22:07.495Z,25.20
2018-07-08T15:24:36.395Z,25.20
2018-07-08T15:27:05.222Z,25.20
2018-07-08T15:29:33.980Z,25.20
2018-07-08T15:32:02.753Z,25.30
2018-07-08T15:34:31.532Z,25.30
2018-07-08T15:41:57.744Z,25.30
2018-07-08T15:44:26.535Z,25.30
2018-07-08T15:46:55.678Z,25.40
2018-07-08T15:49:24.472Z,25.40
2018-07-08T15:51:53.215Z,25.50
2018-07-08T15:54:22.671Z,25.40
2018-07-08T15:56:51.573Z,25.40
2018-07-08T15:59:20.561Z,25.40
2018-07-08T16:01:49.378Z,25.50
2018-07-08T16:04:18.133Z,25.60
2018-07-08T16:09:15.537Z,25.70
2018-07-08T16:11:44.489Z,25.90
2018-07-08T16:14:13.338Z,25.90
2018-07-08T16:16:42.124Z,26.00
2018-07-08T16:19:10.892Z,26.10
2018-07-08T16:21:39.715Z,26.10
2018-07-08T16:24:08.472Z,26.10
2018-07-08T16:26:37.531Z,26.10
2018-07-08T16:31:34.739Z,26.20
2018-07-08T16:34:03.596Z,26.10
2018-07-08T16:36:32.415Z,26.30
2018-07-08T16:39:01.407Z,26.30
2018-07-08T16:41:30.284Z,26.30
2018-07-08T16:43:59.047Z,26.30
2018-07-08T16:48:56.592Z,26.30
2018-07-08T16:51:25.427Z,26.40
2018-07-08T16:53:54.242Z,26.40
2018-07-08T16:56:23.134Z,26.50
2018-07-08T16:58:51.817Z,26.40
2018-07-08T17:01:20.616Z,26.40
2018-07-08T17:03:49.422Z,26.50
2018-07-08T17:06:18.219Z,26.60
2018-07-08T17:08:47.080Z,26.60
2018-07-08T17:11:15.993Z,26.60
2018-07-08T17:13:44.782Z,26.50
2018-07-08T17:16:13.573Z,26.60
2018-07-08T17:18:42.384Z,26.70
2018-07-08T17:21:11.184Z,26.80
2018-07-08T17:23:40.090Z,26.90
2018-07-08T17:31:06.019Z,26.80
2018-07-08T17:33:34.910Z,26.70
2018-07-08T17:36:03.709Z,26.60
2018-07-08T17:38:32.740Z,26.60
2018-07-08T17:41:01.696Z,26.60
2018-07-08T17:43:30.905Z,26.70
2018-07-08T17:45:59.687Z,26.60
2018-07-08T17:50:57.531Z,26.40
2018-07-08T17:53:26.376Z,26.50
2018-07-08T17:58:23.677Z,26.30
2018-07-08T18:00:52.555Z,26.30
2018-07-08T18:03:21.301Z,26.40
2018-07-08T18:05:50.197Z,26.40
2018-07-08T18:08:19.006Z,26.30
2018-07-08T18:13:17.020Z,26.30
2018-07-08T18:15:45.765Z,26.20
2018-07-08T18:18:14.699Z,26.20
2018-07-08T18:20:43.500Z,26.10
2018-07-08T18:23:12.287Z,26.10
2018-07-08T18:25:41.102Z,26.10
2018-07-08T18:28:09.947Z,26.10
2018-07-08T18:30:39.047Z,26.10
2018-07-08T18:33:07.779Z,26.10
2018-07-08T18:35:36.578Z,26.20
2018-07-08T18:38:05.374Z,26.30
2018-07-08T18:40:34.186Z,26.60
2018-07-08T18:43:02.935Z,26.70
2018-07-08T18:45:31.694Z,26.70
2018-07-08T18:48:00.497Z,26.60
2018-07-08T18:50:29.256Z,26.40
2018-07-08T18:52:58.039Z,26.30
2018-07-08T18:55:26.776Z,26.10
2018-07-08T18:57:55.606Z,26.00
2018-07-08T19:00:24.387Z,25.90
2018-07-08T19:02:53.232Z,25.90
2018-07-08T19:05:22.219Z,25.70
2018-07-08T19:07:50.975Z,25.60
2018-07-08T19:10:19.725Z,25.60
2018-07-08T19:12:48.582Z,25.50
2018-07-08T19:15:17.487Z,25.40
2018-07-08T19:17:46.423Z,25.30
2018-07-08T19:22:43.756Z,25.30
2018-07-08T19:25:12.573Z,25.30
2018-07-08T19:27:41.324Z,25.30
2018-07-08T19:30:10.073Z,25.20
2018-07-08T19:32:39.418Z,25.20
2018-07-08T19:35:08.311Z,25.20
2018-07-08T19:37:37.071Z,25.20
2018-07-08T19:40:05.870Z,25.20
2018-07-08T19:42:34.688Z,25.00
2018-07-08T19:45:03.462Z,25.00
2018-07-08T19:47:32.321Z,25.00
2018-07-08T19:52:29.677Z,24.80
2018-07-08T19:57:26.911Z,24.70
2018-07-08T19:59:55.762Z,24.70
2018-07-08T20:02:24.529Z,24.70
2018-07-08T20:04:53.302Z,24.80
2018-07-08T20:07:22.106Z,24.70
2018-07-08T20:12:19.831Z,24.60
2018-07-08T20:14:48.571Z,24.50
2018-07-08T20:17:17.406Z,24.50
2018-07-08T20:19:46.152Z,24.50
2018-07-08T20:22:14.949Z,24.50
2018-07-08T20:24:43.963Z,24.50
2018-07-08T20:27:12.722Z,24.50
2018-07-08T20:32:10.133Z,24.40
2018-07-08T20:34:38.904Z,24.40
2018-07-08T20:37:07.827Z,24.40
2018-07-08T20:39:36.554Z,24.40
2018-07-08T20:42:05.289Z,24.40
2018-07-08T20:44:34.076Z,24.40
2018-07-08T20:47:02.806Z,24.40
2018-07-08T20:49:31.577Z,24.40
2018-07-08T20:52:00.335Z,24.30
2018-07-08T20:54:29.107Z,24.30
2018-07-08T20:56:57.998Z,24.20
2018-07-08T20:59:26.865Z,24.20
2018-07-08T21:04:24.070Z,24.20
2018-07-08T21:06:52.847Z,24.20
2018-07-08T21:09:22.164Z,24.10
2018-07-08T21:11:51.474Z,24.10
2018-07-08T21:14:20.339Z,24.00
2018-07-08T21:19:17.565Z,24.00
2018-07-08T21:21:46.456Z,23.90
2018-07-08T21:24:15.927Z,23.80
2018-07-08T21:26:44.862Z,23.90
2018-07-08T21:29:13.693Z,23.80
2018-07-08T21:34:17.836Z,23.70
2018-07-08T21:36:46.750Z,23.60
2018-07-08T21:39:15.664Z,23.60
2018-07-08T21:41:44.476Z,23.60
2018-07-08T21:44:13.623Z,23.60
2018-07-08T21:46:42.488Z,23.60
2018-07-08T21:49:11.365Z,23.60
2018-07-08T21:51:40.169Z,23.60
2018-07-08T21:54:08.955Z,23.60
2018-07-08T21:56:37.768Z,23.60
2018-07-08T21:59:06.489Z,23.60
2018-07-08T22:01:44.552Z,23.60
2018-07-08T22:04:13.358Z,23.50
2018-07-08T22:06:42.056Z,23.50
2018-07-08T22:09:10.965Z,23.50
2018-07-08T22:11:39.753Z,23.50
2018-07-08T22:14:08.631Z,23.40
2018-07-08T22:16:37.414Z,23.40
2018-07-08T22:19:06.356Z,23.40
2018-07-08T22:21:35.230Z,23.40
2018-07-08T22:26:33.205Z,23.20
2018-07-08T22:29:02.194Z,23.20
2018-07-08T22:31:31.011Z,23.20
2018-07-08T22:33:59.801Z,23.20
2018-07-08T22:38:57.111Z,23.20
2018-07-08T22:41:25.853Z,23.30
2018-07-08T22:46:23.459Z,23.20
2018-07-08T22:48:52.238Z,23.10
2018-07-08T22:51:21.228Z,23.10
2018-07-08T22:53:50.124Z,23.20
2018-07-08T22:56:19.035Z,23.10
2018-07-08T22:58:47.811Z,23.10
2018-07-08T23:01:28.335Z,23.10
2018-07-08T23:03:59.212Z,23.10
2018-07-08T23:06:27.971Z,23.10
2018-07-08T23:08:57.056Z,23.00
2018-07-08T23:11:26.512Z,22.90
2018-07-08T23:13:56.180Z,22.80
2018-07-08T23:21:23.047Z,22.80
2018-07-08T23:23:51.932Z,22.90
2018-07-08T23:26:20.920Z,22.90
2018-07-08T23:28:49.709Z,22.90
2018-07-08T23:31:18.471Z,23.00
2018-07-08T23:33:47.567Z,22.80
2018-07-08T23:36:16.448Z,22.80
2018-07-08T23:38:45.368Z,22.70
2018-07-08T23:41:14.103Z,22.60
2018-07-08T23:43:42.914Z,22.60
2018-07-08T23:46:11.837Z,22.50
2018-07-08T23:48:40.650Z,22.50
2018-07-08T23:53:37.935Z,22.60
2018-07-08T23:56:06.709Z,22.60
2018-07-08T23:58:35.617Z,22.50
